Alkabo, North Dakota
Current Conditions -  °F | °C
As of 6:52 PM on Tuesday 21 Oct 2014 (Local Time) from KISN Reporting Station
Clear Clear  
Wind Chill: 71°   Ceiling: Unl
Heat Index: 71°   Visibility: 10mi
Dew Point: 42°   Wind: 0mph
Humidity: 35%   Direction: NA
Pressure: 29.57"   Gusts: NA
Location:  48.5901°N, 103.922°W
Report Text: KISN 212352Z AUTO 00000KT 10SM CLR 22/06 A2957 RMK AO2 SLP011 T02170056 10239 20167 56007
Loading
Personal Weather Stations






























Interactive Weather Map
Tropical Storm Tracking
New forecast layout! Learn more

10-Day Weather Forecast

Advertisements
Track Severe Weather on mobile